createdAt,value
2019-03-13T00:00:04.347Z,990.65
2019-03-13T00:05:07.928Z,990.7
2019-03-13T00:10:02.218Z,990.67
2019-03-13T00:15:08.894Z,990.82
2019-03-13T00:20:08.152Z,990.86
2019-03-13T00:25:07.935Z,990.87
2019-03-13T00:30:04.434Z,990.94
2019-03-13T00:35:07.669Z,991.05
2019-03-13T00:40:06.561Z,991.06
2019-03-13T00:45:03.044Z,991.13
2019-03-13T00:50:07.310Z,991.07
2019-03-13T00:55:06.507Z,991.1
2019-03-13T01:00:03.017Z,991.07
2019-03-13T01:05:07.177Z,991.12
2019-03-13T01:10:08.889Z,991.16
2019-03-13T01:15:05.986Z,991.25
2019-03-13T01:20:08.185Z,991.24
2019-03-13T01:25:06.821Z,991.24
2019-03-13T01:30:03.347Z,991.27
2019-03-13T01:35:07.267Z,991.29
2019-03-13T01:40:05.703Z,991.35
2019-03-13T01:45:06.696Z,991.46
2019-03-13T01:50:05.753Z,991.4
2019-03-13T01:55:04.419Z,991.42
2019-03-13T02:00:06.514Z,991.44
2019-03-13T02:05:06.488Z,991.49
2019-03-13T02:10:03.173Z,991.51
2019-03-13T02:15:03.281Z,991.45
2019-03-13T02:20:07.747Z,991.43
2019-03-13T02:25:13.066Z,991.34
2019-03-13T02:30:05.289Z,991.35
2019-03-13T02:35:12.109Z,991.38
2019-03-13T02:40:07.450Z,991.33
2019-03-13T02:45:03.041Z,991.3
2019-03-13T02:50:05.284Z,991.29
2019-03-13T02:55:04.210Z,991.26
2019-03-13T03:00:02.829Z,991.3
2019-03-13T03:05:04.704Z,991.17
2019-03-13T03:10:04.635Z,991.09
2019-03-13T03:15:03.519Z,990.91
2019-03-13T03:20:05.430Z,991.01
2019-03-13T03:25:07.163Z,990.93
2019-03-13T03:30:06.444Z,991.05
2019-03-13T03:35:09.942Z,990.93
2019-03-13T03:40:10.222Z,990.96
2019-03-13T03:45:11.409Z,990.95
2019-03-13T03:50:11.087Z,990.88
2019-03-13T03:55:07.499Z,990.91
2019-03-13T04:00:08.110Z,990.89
2019-03-13T04:05:05.741Z,990.88
2019-03-13T04:10:04.663Z,991.01
2019-03-13T04:15:06.862Z,990.98
2019-03-13T04:20:07.445Z,990.95
2019-03-13T04:25:07.698Z,990.99
2019-03-13T04:30:03.190Z,990.82
2019-03-13T04:35:06.935Z,990.9
2019-03-13T04:40:07.614Z,990.88
2019-03-13T04:45:03.080Z,991.05
2019-03-13T04:50:06.795Z,990.95
2019-03-13T04:55:07.474Z,990.98
2019-03-13T05:00:03.022Z,991.03
2019-03-13T05:05:06.761Z,991.08
2019-03-13T05:10:04.574Z,990.98
2019-03-13T05:15:06.308Z,990.91
2019-03-13T05:20:06.780Z,990.93
2019-03-13T05:25:10.098Z,990.99
2019-03-13T05:30:02.602Z,990.93
2019-03-13T05:35:07.423Z,990.89
2019-03-13T05:40:09.999Z,990.85
2019-03-13T05:45:03.761Z,990.9
2019-03-13T05:50:11.835Z,990.95
2019-03-13T05:55:08.126Z,990.97
2019-03-13T06:00:02.694Z,990.96
2019-03-13T06:05:06.346Z,990.99
2019-03-13T06:10:06.949Z,990.9
2019-03-13T06:15:05.374Z,990.73
2019-03-13T06:20:04.552Z,990.78
2019-03-13T06:25:05.619Z,990.73
2019-03-13T06:30:04.321Z,990.71
2019-03-13T06:35:06.856Z,990.84
2019-03-13T06:40:09.747Z,990.93
2019-03-13T06:45:06.363Z,990.99
2019-03-13T06:50:09.218Z,990.97
2019-03-13T06:55:07.443Z,990.87
2019-03-13T07:00:03.997Z,990.9
2019-03-13T07:05:07.378Z,991.02
2019-03-13T07:10:05.557Z,991.02
2019-03-13T07:15:04.227Z,991.05
2019-03-13T07:20:06.093Z,990.94
2019-03-13T07:25:07.352Z,991.01
2019-03-13T07:30:04.034Z,990.95
2019-03-13T07:35:06.539Z,990.96
2019-03-13T07:40:07.809Z,990.97
2019-03-13T07:45:04.301Z,990.95
2019-03-13T07:50:06.437Z,990.95
2019-03-13T07:55:09.245Z,991
2019-03-13T08:00:07.087Z,990.96
2019-03-13T08:05:09.191Z,990.97
2019-03-13T08:10:07.203Z,990.87
2019-03-13T08:15:04.097Z,990.85
2019-03-13T08:20:07.027Z,990.77
2019-03-13T08:25:11.067Z,990.89
2019-03-13T08:30:03.619Z,990.97
2019-03-13T08:35:07.621Z,991
2019-03-13T08:40:06.209Z,990.98
2019-03-13T08:45:03.862Z,990.87
2019-03-13T08:50:07.107Z,990.92
2019-03-13T08:55:06.757Z,990.83
2019-03-13T09:00:05.938Z,990.73
2019-03-13T09:05:10.205Z,990.66
2019-03-13T09:10:07.215Z,990.61
2019-03-13T09:15:02.760Z,990.6
2019-03-13T09:20:09.543Z,990.54
2019-03-13T09:25:15.274Z,990.45
2019-03-13T09:30:02.834Z,990.53
2019-03-13T09:35:07.765Z,990.53
2019-03-13T09:40:08.112Z,990.52
2019-03-13T09:45:02.645Z,990.53
2019-03-13T09:50:08.691Z,990.57
2019-03-13T09:55:06.875Z,990.54
2019-03-13T10:00:03.370Z,990.49
2019-03-13T10:05:06.322Z,990.58
2019-03-13T10:10:07.021Z,990.63
2019-03-13T10:15:02.563Z,990.54
2019-03-13T10:20:06.440Z,990.43
2019-03-13T10:25:07.429Z,990.35
2019-03-13T10:30:02.979Z,990.28
2019-03-13T10:35:06.729Z,990.43
2019-03-13T10:40:07.255Z,990.33
2019-03-13T10:45:02.847Z,990.28
2019-03-13T10:50:06.820Z,990.22
2019-03-13T10:55:05.936Z,990.16
2019-03-13T11:00:03.445Z,990.2
2019-03-13T11:05:05.737Z,990.07
2019-03-13T11:10:06.806Z,989.97
2019-03-13T11:15:03.277Z,989.92
2019-03-13T11:20:05.574Z,990.08
2019-03-13T11:25:07.985Z,989.99
2019-03-13T11:30:03.932Z,990.1
2019-03-13T11:35:05.972Z,989.97
2019-03-13T11:40:08.082Z,989.99
2019-03-13T11:45:03.186Z,990.03
2019-03-13T11:50:05.274Z,990.01
2019-03-13T11:55:07.381Z,989.97
2019-03-13T12:00:03.508Z,989.94
2019-03-13T12:05:07.738Z,990.01
2019-03-13T12:10:07.700Z,989.84
2019-03-13T12:15:05.395Z,989.93
2019-03-13T12:20:07.435Z,989.75
2019-03-13T12:25:06.279Z,989.75
2019-03-13T12:30:04.004Z,989.82
2019-03-13T12:35:06.943Z,989.75
2019-03-13T12:40:08.048Z,989.69
2019-03-13T12:45:03.648Z,989.61
2019-03-13T12:50:06.446Z,989.56
2019-03-13T12:55:07.092Z,989.58
2019-03-13T13:00:03.824Z,989.54
2019-03-13T13:05:07.255Z,989.42
2019-03-13T13:10:07.011Z,989.42
2019-03-13T13:15:03.719Z,989.35
2019-03-13T13:20:07.097Z,989.28
2019-03-13T13:25:08.650Z,989.37
2019-03-13T13:30:04.271Z,989.25
2019-03-13T13:35:08.191Z,989.33
2019-03-13T13:40:09.334Z,989.17
2019-03-13T13:45:05.346Z,989.15
2019-03-13T13:50:09.173Z,989.15
2019-03-13T13:55:07.337Z,989.39
2019-03-13T14:00:04.204Z,989.28
2019-03-13T14:05:07.597Z,989.31
2019-03-13T14:10:07.678Z,989.29
2019-03-13T14:15:04.339Z,989.34
2019-03-13T14:20:07.182Z,989.27
2019-03-13T14:25:07.898Z,989.13
2019-03-13T14:30:04.383Z,989.08
2019-03-13T14:35:07.344Z,989.08
2019-03-13T14:40:06.092Z,988.92
2019-03-13T14:45:03.704Z,988.82
2019-03-13T14:50:06.281Z,988.99
2019-03-13T14:55:07.005Z,989.02
2019-03-13T15:00:03.610Z,989.04
2019-03-13T15:05:06.368Z,989.09
2019-03-13T15:10:06.942Z,989.09
2019-03-13T15:15:04.313Z,989.1
2019-03-13T15:20:06.727Z,989
2019-03-13T15:25:09.448Z,989.01
2019-03-13T15:30:03.727Z,989.12
2019-03-13T15:35:09.765Z,989
2019-03-13T15:40:08.551Z,988.96
2019-03-13T15:45:03.590Z,989.23
2019-03-13T15:50:09.357Z,989.32
2019-03-13T15:55:07.320Z,989.34
2019-03-13T16:00:03.424Z,989.31
2019-03-13T16:05:08.550Z,989.35
2019-03-13T16:10:07.574Z,989.41
2019-03-13T16:15:03.547Z,989.16
2019-03-13T16:20:07.685Z,989.22
2019-03-13T16:25:07.769Z,989.3
2019-03-13T16:30:03.796Z,989.55
2019-03-13T16:35:06.391Z,989.33
2019-03-13T16:40:07.020Z,989.57
2019-03-13T16:45:02.555Z,989.58
2019-03-13T16:50:06.266Z,990.15
2019-03-13T16:55:06.846Z,990.27
2019-03-13T17:00:03.305Z,990.56
2019-03-13T17:05:06.703Z,990.42
2019-03-13T17:10:07.385Z,990.29
2019-03-13T17:15:02.956Z,990.19
2019-03-13T17:20:07.349Z,990.14
2019-03-13T17:25:08.239Z,990.32
2019-03-13T17:30:02.730Z,990.18
2019-03-13T17:35:07.163Z,990.3
2019-03-13T17:40:08.183Z,990.27
2019-03-13T17:45:02.790Z,990.4
2019-03-13T17:50:07.207Z,990.54
2019-03-13T17:55:07.462Z,990.66
2019-03-13T18:00:03.030Z,990.75
2019-03-13T18:05:05.349Z,990.74
2019-03-13T18:10:07.249Z,990.75
2019-03-13T18:15:02.782Z,990.88
2019-03-13T18:20:07.689Z,990.87
2019-03-13T18:25:06.334Z,990.95
2019-03-13T18:30:02.821Z,990.92
2019-03-13T18:35:07.539Z,990.97
2019-03-13T18:40:06.052Z,990.93
2019-03-13T18:45:02.628Z,990.96
2019-03-13T18:50:04.488Z,991.05
2019-03-13T18:55:06.087Z,991.17
2019-03-13T19:00:03.290Z,991.21
2019-03-13T19:05:05.730Z,991.47
2019-03-13T19:10:06.261Z,991.64
2019-03-13T19:15:03.400Z,991.71
2019-03-13T19:20:05.844Z,991.79
2019-03-13T19:25:05.825Z,991.89
2019-03-13T19:30:03.923Z,992.13
2019-03-13T19:35:05.520Z,992.2
2019-03-13T19:40:06.996Z,992.15
2019-03-13T19:45:03.616Z,992.21
2019-03-13T19:50:06.208Z,992.3
2019-03-13T19:55:06.860Z,992.32
2019-03-13T20:00:04.355Z,992.59
2019-03-13T20:05:06.045Z,992.59
2019-03-13T20:10:06.867Z,992.7
2019-03-13T20:15:04.994Z,992.74
2019-03-13T20:20:05.951Z,992.57
2019-03-13T20:25:08.853Z,992.79
2019-03-13T20:30:06.788Z,992.76
2019-03-13T20:35:10.793Z,992.84
2019-03-13T20:40:10.848Z,992.88
2019-03-13T20:45:07.074Z,992.94
2019-03-13T20:50:11.029Z,992.94
2019-03-13T20:55:11.566Z,993.45
2019-03-13T21:00:11.758Z,993.41
2019-03-13T21:05:13.221Z,993.37
2019-03-13T21:10:10.914Z,993.44
2019-03-13T21:15:10.933Z,993.48
2019-03-13T21:20:10.267Z,993.48
2019-03-13T21:25:11.976Z,993.52
2019-03-13T21:30:15.336Z,993.48
2019-03-13T21:35:11.778Z,993.55
2019-03-13T21:40:15.445Z,993.65
2019-03-13T21:45:41.601Z,993.71
2019-03-13T21:50:08.827Z,993.73
2019-03-13T21:55:11.571Z,993.85
2019-03-13T22:00:09.789Z,993.96
2019-03-13T22:05:08.220Z,993.93
2019-03-13T22:10:06.375Z,993.97
2019-03-13T22:15:14.809Z,994
2019-03-13T22:20:11.754Z,993.91
2019-03-13T22:25:14.890Z,994.04
2019-03-13T22:30:14.845Z,994.04
2019-03-13T22:35:13.347Z,994.11
2019-03-13T22:40:11.990Z,994.16
2019-03-13T22:45:12.250Z,994.24
2019-03-13T22:50:11.670Z,994.34
2019-03-13T22:55:10.268Z,994.46
2019-03-13T23:00:12.556Z,994.46
2019-03-13T23:05:11.591Z,994.47
2019-03-13T23:10:11.030Z,994.52
2019-03-13T23:15:10.759Z,994.42
2019-03-13T23:20:16.658Z,994.64
2019-03-13T23:25:13.531Z,994.88
2019-03-13T23:30:14.369Z,994.8
2019-03-13T23:35:16.047Z,994.59
2019-03-13T23:40:16.562Z,994.83
2019-03-13T23:45:12.059Z,994.8
2019-03-13T23:50:10.224Z,994.91
2019-03-13T23:55:09.932Z,994.96
